Terminal Aerodrome Forecast
Issued by NWS Charleston, WV

Current Version | Previous Version | Graphics & Text | Print | Product List | Glossary On
Versions: 1 2 3 4 5 6 7 8 9 10 11 12 13 14 15 16 17 18 19 20 21 22 23 24 25 26 27 28
000
FTUS41 KRLX 031120
TAFHTS
TAF
KHTS 031120Z 0312/0412 09003KT 6SM BR BKN015
     FM031400 12004KT 4SM SHRA BKN010
     FM031600 10003KT P6SM VCTS BKN015CB
     FM031800 16004KT 3SM TSRA OVC015CB
     FM032000 24004KT 5SM SHRA BKN025
     FM040200 25004KT 6SM BR BKN020
     FM040700 25005KT 5SM BR BKN010=

USA.gov is the U.S. government's official web portal to all federal, state and local government web resources and services.